createdAt,value
2022-08-07T00:00:07.399Z,15.57
2022-08-07T00:02:41.084Z,15.57
2022-08-07T00:05:10.789Z,15.71
2022-08-07T00:07:40.589Z,15.63
2022-08-07T00:10:26.500Z,15.42
2022-08-07T00:13:00.519Z,15.21
2022-08-07T00:15:36.017Z,15.33
2022-08-07T00:18:05.375Z,15.50
2022-08-07T00:20:34.256Z,15.45
2022-08-07T00:23:02.609Z,15.26
2022-08-07T00:25:37.567Z,15.18
2022-08-07T00:28:07.941Z,15.39
2022-08-07T00:30:37.309Z,15.39
2022-08-07T00:33:05.036Z,15.18
2022-08-07T00:35:36.562Z,15.33
2022-08-07T00:38:04.073Z,15.31
2022-08-07T00:40:39.859Z,15.12
2022-08-07T00:43:59.372Z,14.98
2022-08-07T00:46:00.381Z,14.94
2022-08-07T00:48:31.897Z,15.04
2022-08-07T00:51:00.185Z,15.11
2022-08-07T00:53:26.852Z,15.18
2022-08-07T00:56:07.514Z,15.01
2022-08-07T00:58:46.987Z,15.09
2022-08-07T01:01:17.675Z,15.08
2022-08-07T01:03:55.573Z,15.06
2022-08-07T01:06:25.261Z,14.81
2022-08-07T01:08:53.311Z,14.68
2022-08-07T01:12:23.797Z,14.68
2022-08-07T01:14:09.069Z,14.57
2022-08-07T01:16:36.840Z,14.54
2022-08-07T01:19:10.825Z,14.41
2022-08-07T01:21:47.189Z,14.43
2022-08-07T01:24:14.146Z,14.73
2022-08-07T01:26:51.543Z,14.77
2022-08-07T01:29:19.715Z,14.56
2022-08-07T01:31:48.228Z,14.47
2022-08-07T01:34:15.747Z,14.44
2022-08-07T01:36:44.010Z,14.36
2022-08-07T01:39:11.917Z,14.36
2022-08-07T01:41:55.021Z,13.99
2022-08-07T01:44:27.425Z,14.20
2022-08-07T01:46:54.584Z,14.17
2022-08-07T01:49:21.504Z,14.13
2022-08-07T01:52:02.525Z,14.01
2022-08-07T01:54:36.854Z,14.04
2022-08-07T01:57:24.204Z,14.37
2022-08-07T02:00:13.406Z,14.25
2022-08-07T02:03:19.248Z,14.06
2022-08-07T02:05:48.559Z,13.98
2022-08-07T02:08:28.024Z,13.89
2022-08-07T02:10:59.395Z,14.16
2022-08-07T02:13:58.043Z,13.81
2022-08-07T02:16:19.682Z,13.92
2022-08-07T02:18:49.382Z,13.64
2022-08-07T02:21:19.341Z,13.64
2022-08-07T02:23:46.450Z,13.85
2022-08-07T02:26:32.841Z,13.94
2022-08-07T02:29:02.361Z,13.96
2022-08-07T02:31:30.363Z,13.67
2022-08-07T02:34:11.307Z,13.78
2022-08-07T02:36:45.243Z,13.69
2022-08-07T02:39:17.293Z,13.74
2022-08-07T02:42:02.555Z,13.74
2022-08-07T02:44:34.867Z,13.55
2022-08-07T02:47:05.095Z,13.61
2022-08-07T02:49:57.644Z,13.27
2022-08-07T02:52:31.022Z,13.46
2022-08-07T02:55:03.729Z,13.38
2022-08-07T02:57:34.240Z,13.67
2022-08-07T03:00:10.294Z,13.61
2022-08-07T03:02:51.977Z,13.54
2022-08-07T03:05:23.255Z,13.41
2022-08-07T03:08:07.067Z,13.48
2022-08-07T03:10:40.570Z,13.06
2022-08-07T03:13:08.689Z,13.09
2022-08-07T03:15:47.760Z,13.03
2022-08-07T03:18:22.690Z,12.96
2022-08-07T03:21:01.748Z,12.75
2022-08-07T03:23:33.895Z,12.58
2022-08-07T03:26:23.449Z,12.99
2022-08-07T03:28:51.546Z,13.07
2022-08-07T03:31:23.679Z,12.95
2022-08-07T03:33:56.377Z,12.85
2022-08-07T03:36:25.898Z,12.86
2022-08-07T03:38:57.514Z,13.00
2022-08-07T03:41:42.371Z,13.02
2022-08-07T03:44:12.501Z,13.07
2022-08-07T03:47:13.187Z,12.80
2022-08-07T03:49:30.570Z,12.57
2022-08-07T03:52:01.435Z,12.59
2022-08-07T03:54:36.412Z,12.39
2022-08-07T03:58:33.841Z,12.39
2022-08-07T04:00:04.151Z,12.48
2022-08-07T04:02:31.512Z,12.17
2022-08-07T04:04:58.678Z,12.11
2022-08-07T04:07:25.730Z,12.14
2022-08-07T04:10:03.718Z,12.10
2022-08-07T04:12:35.138Z,12.20
2022-08-07T04:15:04.882Z,12.08
2022-08-07T04:18:31.056Z,11.99
2022-08-07T04:20:19.654Z,12.07
2022-08-07T04:22:53.403Z,12.16
2022-08-07T04:25:22.672Z,12.31
2022-08-07T04:27:59.341Z,12.21
2022-08-07T04:30:39.233Z,12.24
2022-08-07T04:33:13.903Z,12.16
2022-08-07T04:35:50.620Z,12.11
2022-08-07T04:38:20.007Z,12.32
2022-08-07T04:40:52.089Z,12.45
2022-08-07T04:44:10.306Z,12.38
2022-08-07T04:46:29.422Z,12.54
2022-08-07T04:49:17.962Z,12.51
2022-08-07T04:51:53.741Z,12.51
2022-08-07T04:54:42.084Z,12.58
2022-08-07T04:58:24.120Z,12.82
2022-08-07T05:00:32.741Z,12.58
2022-08-07T05:03:59.758Z,12.78
2022-08-07T05:06:19.204Z,12.96
2022-08-07T05:09:02.831Z,13.02
2022-08-07T05:11:58.094Z,13.02
2022-08-07T05:14:55.526Z,12.93
2022-08-07T05:17:52.018Z,13.04
2022-08-07T05:20:17.223Z,13.27
2022-08-07T05:22:46.925Z,13.40
2022-08-07T05:25:26.235Z,13.53
2022-08-07T05:28:20.287Z,13.61
2022-08-07T05:30:52.557Z,13.71
2022-08-07T05:33:21.135Z,13.62
2022-08-07T05:35:51.593Z,13.68
2022-08-07T05:39:00.462Z,13.71
2022-08-07T05:41:14.270Z,13.77
2022-08-07T05:44:07.813Z,13.88
2022-08-07T05:46:37.735Z,14.06
2022-08-07T05:49:12.115Z,14.10
2022-08-07T05:51:42.286Z,14.27
2022-08-07T05:54:19.590Z,14.32
2022-08-07T05:56:57.230Z,14.36
2022-08-07T05:59:26.255Z,14.34
2022-08-07T06:01:56.021Z,14.54
2022-08-07T06:04:29.811Z,14.60
2022-08-07T06:07:03.966Z,14.81
2022-08-07T06:10:04.068Z,14.71
2022-08-07T06:12:20.902Z,15.09
2022-08-07T06:14:49.474Z,15.01
2022-08-07T06:17:19.210Z,15.16
2022-08-07T06:20:03.648Z,15.31
2022-08-07T06:22:38.818Z,15.39
2022-08-07T06:25:10.218Z,15.53
2022-08-07T06:27:59.833Z,15.60
2022-08-07T06:30:35.431Z,15.81
2022-08-07T06:33:05.183Z,15.97
2022-08-07T06:35:45.534Z,16.11
2022-08-07T06:38:20.436Z,16.17
2022-08-07T06:40:51.333Z,16.10
2022-08-07T06:43:22.664Z,16.38
2022-08-07T06:45:50.588Z,16.38
2022-08-07T06:48:25.297Z,16.46
2022-08-07T06:50:54.933Z,16.58
2022-08-07T06:55:28.350Z,16.72
2022-08-07T06:56:15.490Z,16.86
2022-08-07T07:00:13.246Z,17.15
2022-08-07T07:01:33.161Z,17.15
2022-08-07T07:04:28.515Z,17.13
2022-08-07T07:07:01.186Z,17.45
2022-08-07T07:09:31.074Z,17.59
2022-08-07T07:12:07.823Z,17.71
2022-08-07T07:14:53.269Z,17.86
2022-08-07T07:17:52.787Z,18.09
2022-08-07T07:20:27.604Z,18.09
2022-08-07T07:24:09.336Z,18.26
2022-08-07T07:26:35.672Z,18.37
2022-08-07T07:28:48.237Z,18.51
2022-08-07T07:31:39.966Z,18.68
2022-08-07T07:34:17.464Z,18.77
2022-08-07T07:36:47.787Z,19.10
2022-08-07T07:39:22.622Z,18.94
2022-08-07T07:42:13.693Z,18.94
2022-08-07T07:44:41.979Z,19.13
2022-08-07T07:47:15.881Z,19.30
2022-08-07T07:50:34.011Z,19.46
2022-08-07T07:52:41.060Z,19.70
2022-08-07T07:55:11.021Z,19.74
2022-08-07T07:57:51.862Z,19.81
2022-08-07T08:00:29.521Z,20.02
2022-08-07T08:03:06.827Z,20.42
2022-08-07T08:05:50.486Z,20.93
2022-08-07T08:08:35.160Z,21.79
2022-08-07T08:11:09.229Z,22.12
2022-08-07T08:13:53.970Z,22.20
2022-08-07T08:16:29.991Z,22.81
2022-08-07T08:18:58.338Z,23.21
2022-08-07T08:21:55.849Z,23.28
2022-08-07T08:25:04.503Z,23.79
2022-08-07T08:27:40.401Z,23.81
2022-08-07T08:30:14.171Z,23.62
2022-08-07T08:32:49.161Z,23.66
2022-08-07T08:35:22.062Z,24.11
2022-08-07T08:38:01.012Z,24.38
2022-08-07T08:40:38.000Z,24.37
2022-08-07T08:43:18.417Z,23.25
2022-08-07T08:45:59.399Z,24.75
2022-08-07T08:48:36.395Z,24.65
2022-08-07T08:51:49.409Z,24.52
2022-08-07T08:54:12.262Z,25.07
2022-08-07T08:56:47.274Z,25.23
2022-08-07T08:59:57.208Z,24.75
2022-08-07T09:02:40.323Z,24.79
2022-08-07T09:05:14.690Z,24.82
2022-08-07T09:07:57.651Z,25.20
2022-08-07T09:10:27.502Z,25.53
2022-08-07T09:13:09.504Z,25.02
2022-08-07T09:16:23.336Z,26.06
2022-08-07T09:19:03.332Z,25.64
2022-08-07T09:22:09.649Z,24.99
2022-08-07T09:25:14.602Z,25.20
2022-08-07T09:28:05.205Z,24.96
2022-08-07T09:30:44.192Z,25.91
2022-08-07T09:33:16.772Z,25.96
2022-08-07T09:36:18.753Z,26.70
2022-08-07T09:39:18.246Z,26.63
2022-08-07T09:42:23.215Z,26.53
2022-08-07T09:47:24.545Z,27.32
2022-08-07T09:48:12.187Z,27.79
2022-08-07T09:52:09.661Z,25.86
2022-08-07T09:54:16.239Z,27.46
2022-08-07T09:56:42.981Z,26.80
2022-08-07T10:00:00.583Z,25.99
2022-08-07T10:03:07.875Z,26.64
2022-08-07T10:05:59.662Z,28.20
2022-08-07T10:08:55.606Z,27.28
2022-08-07T10:12:02.474Z,28.34
2022-08-07T10:14:47.462Z,27.45
2022-08-07T10:18:00.844Z,27.65
2022-08-07T10:22:12.664Z,27.59
2022-08-07T10:24:38.102Z,26.76
2022-08-07T10:27:20.440Z,27.78
2022-08-07T10:30:12.461Z,28.31
2022-08-07T10:33:08.304Z,27.57
2022-08-07T10:36:11.377Z,28.58
2022-08-07T10:38:53.136Z,28.98
2022-08-07T10:41:51.470Z,27.93
2022-08-07T10:44:37.592Z,27.92
2022-08-07T10:47:51.417Z,28.21
2022-08-07T10:50:31.201Z,27.53
2022-08-07T10:53:21.246Z,27.59
2022-08-07T10:56:02.283Z,28.63
2022-08-07T10:58:36.706Z,28.79
2022-08-07T11:01:51.379Z,28.96
2022-08-07T11:04:46.199Z,28.27
2022-08-07T11:07:59.564Z,28.98
2022-08-07T11:10:27.438Z,28.45
2022-08-07T11:13:03.947Z,29.11
2022-08-07T11:15:35.922Z,29.73
2022-08-07T11:18:17.806Z,28.34
2022-08-07T11:21:06.506Z,28.71
2022-08-07T11:23:39.730Z,29.42
2022-08-07T11:26:32.865Z,29.51
2022-08-07T11:29:12.866Z,30.04
2022-08-07T11:32:01.493Z,29.76
2022-08-07T11:34:42.416Z,29.83
2022-08-07T11:37:38.693Z,28.65
2022-08-07T11:40:27.583Z,29.27
2022-08-07T11:43:01.734Z,29.57
2022-08-07T11:45:49.890Z,29.59
2022-08-07T11:48:58.780Z,29.73
2022-08-07T11:51:58.043Z,29.84
2022-08-07T11:54:54.996Z,29.49
2022-08-07T11:57:59.886Z,28.74
2022-08-07T12:00:31.356Z,30.07
2022-08-07T12:03:08.065Z,29.14
2022-08-07T12:06:38.981Z,28.74
2022-08-07T12:09:24.703Z,30.24
2022-08-07T12:12:09.373Z,29.67
2022-08-07T12:15:01.401Z,31.17
2022-08-07T12:17:37.418Z,29.93
2022-08-07T12:20:30.948Z,29.67
2022-08-07T12:23:37.287Z,28.89
2022-08-07T12:26:23.495Z,29.81
2022-08-07T12:29:11.731Z,29.94
2022-08-07T12:31:53.237Z,29.88
2022-08-07T12:34:36.050Z,29.51
2022-08-07T12:37:08.629Z,29.67
2022-08-07T12:39:51.376Z,27.80
2022-08-07T12:42:27.776Z,29.12
2022-08-07T12:44:57.712Z,29.91
2022-08-07T12:47:49.296Z,30.00
2022-08-07T12:50:40.296Z,30.46
2022-08-07T12:54:03.189Z,29.90
2022-08-07T12:56:36.058Z,30.58
2022-08-07T12:59:08.390Z,30.39
2022-08-07T13:01:47.435Z,30.65
2022-08-07T13:04:32.616Z,29.94
2022-08-07T13:08:13.559Z,29.26
2022-08-07T13:10:52.930Z,29.53
2022-08-07T13:13:48.017Z,29.60
2022-08-07T13:16:17.411Z,29.19
2022-08-07T13:18:53.570Z,30.76
2022-08-07T13:21:57.724Z,30.22
2022-08-07T13:24:52.268Z,30.02
2022-08-07T13:28:10.678Z,30.17
2022-08-07T13:30:40.045Z,30.58
2022-08-07T13:34:34.251Z,31.09
2022-08-07T13:36:55.293Z,30.53
2022-08-07T13:40:36.736Z,30.01
2022-08-07T13:42:39.851Z,30.68
2022-08-07T13:46:06.390Z,30.78
2022-08-07T13:48:08.202Z,30.68
2022-08-07T13:50:44.972Z,30.62
2022-08-07T13:53:55.245Z,30.32
2022-08-07T13:56:36.202Z,29.77
2022-08-07T13:59:31.609Z,31.58
2022-08-07T14:02:10.694Z,31.57
2022-08-07T14:04:50.076Z,32.08
2022-08-07T14:08:01.022Z,31.77
2022-08-07T14:10:42.376Z,31.37
2022-08-07T14:13:16.099Z,31.48
2022-08-07T14:15:50.801Z,30.63
2022-08-07T14:18:57.206Z,31.24
2022-08-07T14:22:01.187Z,31.30
2022-08-07T14:24:28.160Z,32.52
2022-08-07T14:27:16.214Z,31.92
2022-08-07T14:30:09.489Z,31.13
2022-08-07T14:32:57.871Z,31.34
2022-08-07T14:35:44.914Z,30.66
2022-08-07T14:38:30.195Z,31.44
2022-08-07T14:41:02.210Z,31.34
2022-08-07T14:43:58.551Z,31.88
2022-08-07T14:46:31.254Z,32.18
2022-08-07T14:52:05.083Z,32.43
2022-08-07T14:54:42.093Z,32.01
2022-08-07T15:02:56.767Z,31.47
2022-08-07T15:05:25.492Z,31.07
2022-08-07T15:07:53.377Z,30.84
2022-08-07T15:10:26.386Z,31.64
2022-08-07T15:13:18.830Z,31.87
2022-08-07T15:15:52.635Z,32.08
2022-08-07T15:18:28.498Z,31.61
2022-08-07T15:21:08.389Z,31.42
2022-08-07T15:26:47.928Z,32.19
2022-08-07T15:32:06.328Z,31.23
2022-08-07T15:34:57.005Z,31.98
2022-08-07T15:38:17.995Z,31.81
2022-08-07T15:40:34.633Z,31.27
2022-08-07T15:43:33.547Z,31.01
2022-08-07T15:46:32.141Z,30.55
2022-08-07T15:54:48.313Z,31.21
2022-08-07T15:57:28.100Z,30.62
2022-08-07T16:00:08.023Z,30.52
2022-08-07T16:02:46.979Z,30.86
2022-08-07T16:05:20.091Z,30.78
2022-08-07T16:08:31.125Z,30.93
2022-08-07T16:10:43.308Z,31.07
2022-08-07T16:13:59.184Z,30.89
2022-08-07T16:16:49.165Z,31.47
2022-08-07T16:19:59.256Z,30.11
2022-08-07T16:22:33.874Z,28.78
2022-08-07T16:25:23.273Z,30.32
2022-08-07T16:30:06.877Z,30.28
2022-08-07T16:31:50.934Z,30.59
2022-08-07T16:34:33.973Z,30.56
2022-08-07T16:38:04.536Z,29.62
2022-08-07T16:41:02.168Z,29.16
2022-08-07T16:44:03.997Z,29.98
2022-08-07T16:47:15.815Z,29.11
2022-08-07T16:50:28.056Z,29.46
2022-08-07T16:54:02.072Z,29.08
2022-08-07T16:56:56.058Z,29.22
2022-08-07T16:59:51.159Z,28.94
2022-08-07T17:02:53.432Z,29.53
2022-08-07T17:06:28.471Z,28.78
2022-08-07T17:09:13.967Z,28.96
2022-08-07T17:12:03.845Z,28.56
2022-08-07T17:14:59.933Z,28.43
2022-08-07T17:17:48.196Z,28.49
2022-08-07T17:20:41.836Z,28.27
2022-08-07T17:23:32.324Z,28.36
2022-08-07T17:26:35.826Z,28.36
2022-08-07T17:30:16.159Z,28.07
2022-08-07T17:32:30.646Z,28.27
2022-08-07T17:35:50.539Z,27.99
2022-08-07T17:38:33.094Z,27.66
2022-08-07T17:42:04.955Z,27.68
2022-08-07T17:44:51.539Z,27.46
2022-08-07T17:47:59.273Z,27.24
2022-08-07T17:50:47.191Z,26.88
2022-08-07T17:54:01.553Z,27.18
2022-08-07T17:56:29.213Z,27.00
2022-08-07T17:58:56.762Z,27.25
2022-08-07T18:01:37.203Z,27.27
2022-08-07T18:04:31.031Z,26.62
2022-08-07T18:07:20.160Z,26.49
2022-08-07T18:10:06.014Z,26.23
2022-08-07T18:13:16.681Z,25.98
2022-08-07T18:16:05.027Z,26.16
2022-08-07T18:21:02.595Z,25.95
2022-08-07T18:21:53.529Z,25.78
2022-08-07T18:24:34.186Z,25.74
2022-08-07T18:27:07.110Z,25.70
2022-08-07T18:30:07.622Z,25.45
2022-08-07T18:33:10.868Z,25.43
2022-08-07T18:35:51.984Z,25.41
2022-08-07T18:38:58.251Z,25.26
2022-08-07T18:42:04.205Z,25.12
2022-08-07T18:45:40.338Z,24.89
2022-08-07T18:48:00.976Z,25.06
2022-08-07T18:50:40.822Z,24.75
2022-08-07T18:53:39.276Z,24.64
2022-08-07T18:56:31.720Z,24.42
2022-08-07T18:59:47.060Z,24.28
2022-08-07T19:02:43.826Z,24.11
2022-08-07T19:06:02.202Z,23.96
2022-08-07T19:08:27.472Z,23.86
2022-08-07T19:11:34.994Z,23.81
2022-08-07T19:14:11.466Z,23.62
2022-08-07T19:17:04.535Z,23.66
2022-08-07T19:19:58.524Z,23.63
2022-08-07T19:22:48.574Z,23.49
2022-08-07T19:26:24.369Z,23.32
2022-08-07T19:28:57.948Z,23.38
2022-08-07T19:31:42.893Z,23.25
2022-08-07T19:33:58.801Z,23.26
